sensor_id;sensor_type;location;lat;lon;timestamp;P1;durP1;ratioP1;P2;durP2;ratioP2
46745;SDS011;32493;50.514;9.678;2023-04-08T00:00:45;29.10;;;8.52;;
46745;SDS011;32493;50.514;9.678;2023-04-08T00:02:52;25.50;;;8.98;;
46745;SDS011;32493;50.514;9.678;2023-04-08T00:04:58;16.70;;;7.93;;
46745;SDS011;32493;50.514;9.678;2023-04-08T00:07:03;18.85;;;8.25;;
46745;SDS011;32493;50.514;9.678;2023-04-08T00:09:09;16.00;;;7.40;;
46745;SDS011;32493;50.514;9.678;2023-04-08T00:11:16;17.48;;;8.63;;
46745;SDS011;32493;50.514;9.678;2023-04-08T00:13:21;19.15;;;8.88;;
46745;SDS011;32493;50.514;9.678;2023-04-08T00:15:29;19.25;;;8.82;;
46745;SDS011;32493;50.514;9.678;2023-04-08T00:17:34;22.13;;;9.02;;
46745;SDS011;32493;50.514;9.678;2023-04-08T00:19:39;18.42;;;8.95;;
46745;SDS011;32493;50.514;9.678;2023-04-08T00:21:45;18.98;;;8.68;;
46745;SDS011;32493;50.514;9.678;2023-04-08T00:23:50;53.88;;;12.07;;
46745;SDS011;32493;50.514;9.678;2023-04-08T00:25:58;90.32;;;11.98;;
46745;SDS011;32493;50.514;9.678;2023-04-08T00:28:07;52.83;;;10.13;;
46745;SDS011;32493;50.514;9.678;2023-04-08T00:32:19;98.30;;;12.00;;
46745;SDS011;32493;50.514;9.678;2023-04-08T00:34:26;99.93;;;12.15;;
46745;SDS011;32493;50.514;9.678;2023-04-08T00:36:31;60.58;;;11.48;;
46745;SDS011;32493;50.514;9.678;2023-04-08T00:38:36;105.32;;;12.50;;
46745;SDS011;32493;50.514;9.678;2023-04-08T00:40:41;79.78;;;12.10;;
46745;SDS011;32493;50.514;9.678;2023-04-08T00:42:47;83.28;;;12.95;;
46745;SDS011;32493;50.514;9.678;2023-04-08T00:44:54;134.20;;;16.15;;
46745;SDS011;32493;50.514;9.678;2023-04-08T00:47:00;135.93;;;16.67;;
46745;SDS011;32493;50.514;9.678;2023-04-08T00:49:06;116.93;;;15.65;;
46745;SDS011;32493;50.514;9.678;2023-04-08T00:51:13;98.93;;;14.40;;
46745;SDS011;32493;50.514;9.678;2023-04-08T00:53:18;116.00;;;15.80;;
46745;SDS011;32493;50.514;9.678;2023-04-08T00:57:32;177.25;;;16.38;;
46745;SDS011;32493;50.514;9.678;2023-04-08T00:59:37;224.02;;;18.77;;
46745;SDS011;32493;50.514;9.678;2023-04-08T01:01:47;181.35;;;16.40;;
46745;SDS011;32493;50.514;9.678;2023-04-08T01:04:01;305.50;;;23.25;;
46745;SDS011;32493;50.514;9.678;2023-04-08T01:06:14;197.05;;;16.70;;
46745;SDS011;32493;50.514;9.678;2023-04-08T01:08:28;196.63;;;16.20;;
46745;SDS011;32493;50.514;9.678;2023-04-08T01:10:36;257.27;;;20.05;;
46745;SDS011;32493;50.514;9.678;2023-04-08T01:12:48;132.18;;;14.27;;
46745;SDS011;32493;50.514;9.678;2023-04-08T01:14:58;167.50;;;16.25;;
46745;SDS011;32493;50.514;9.678;2023-04-08T01:17:11;127.30;;;15.90;;
46745;SDS011;32493;50.514;9.678;2023-04-08T01:19:23;85.90;;;13.13;;
46745;SDS011;32493;50.514;9.678;2023-04-08T01:21:34;57.28;;;12.43;;
46745;SDS011;32493;50.514;9.678;2023-04-08T01:23:42;72.20;;;13.57;;
46745;SDS011;32493;50.514;9.678;2023-04-08T01:26:07;62.13;;;13.00;;
46745;SDS011;32493;50.514;9.678;2023-04-08T01:28:15;44.83;;;12.25;;
46745;SDS011;32493;50.514;9.678;2023-04-08T01:30:22;49.33;;;11.68;;
46745;SDS011;32493;50.514;9.678;2023-04-08T01:32:34;60.40;;;12.38;;
46745;SDS011;32493;50.514;9.678;2023-04-08T01:34:39;151.63;;;14.48;;
46745;SDS011;32493;50.514;9.678;2023-04-08T01:36:46;153.27;;;14.55;;
46745;SDS011;32493;50.514;9.678;2023-04-08T01:38:52;67.93;;;11.95;;
46745;SDS011;32493;50.514;9.678;2023-04-08T01:40:58;64.25;;;12.07;;
46745;SDS011;32493;50.514;9.678;2023-04-08T01:43:06;39.10;;;11.27;;
46745;SDS011;32493;50.514;9.678;2023-04-08T01:45:13;28.17;;;10.43;;
46745;SDS011;32493;50.514;9.678;2023-04-08T01:47:20;46.33;;;11.57;;
46745;SDS011;32493;50.514;9.678;2023-04-08T01:49:25;36.28;;;10.95;;
46745;SDS011;32493;50.514;9.678;2023-04-08T01:53:41;32.35;;;10.35;;
46745;SDS011;32493;50.514;9.678;2023-04-08T01:55:50;26.30;;;10.77;;
46745;SDS011;32493;50.514;9.678;2023-04-08T01:58:00;43.78;;;11.77;;
46745;SDS011;32493;50.514;9.678;2023-04-08T02:00:11;39.85;;;11.20;;
46745;SDS011;32493;50.514;9.678;2023-04-08T02:02:21;119.38;;;12.80;;
46745;SDS011;32493;50.514;9.678;2023-04-08T02:04:29;85.30;;;12.20;;
46745;SDS011;32493;50.514;9.678;2023-04-08T02:06:36;25.50;;;10.85;;
46745;SDS011;32493;50.514;9.678;2023-04-08T02:08:42;39.53;;;10.77;;
46745;SDS011;32493;50.514;9.678;2023-04-08T02:10:47;42.33;;;12.25;;
46745;SDS011;32493;50.514;9.678;2023-04-08T02:12:52;33.00;;;10.85;;
46745;SDS011;32493;50.514;9.678;2023-04-08T02:14:58;63.55;;;11.95;;
46745;SDS011;32493;50.514;9.678;2023-04-08T02:17:07;55.85;;;11.68;;
46745;SDS011;32493;50.514;9.678;2023-04-08T02:19:17;71.97;;;12.23;;
46745;SDS011;32493;50.514;9.678;2023-04-08T02:21:30;38.28;;;11.60;;
46745;SDS011;32493;50.514;9.678;2023-04-08T02:23:41;31.15;;;11.43;;
46745;SDS011;32493;50.514;9.678;2023-04-08T02:25:52;119.75;;;12.85;;
46745;SDS011;32493;50.514;9.678;2023-04-08T02:28:01;58.53;;;11.52;;
46745;SDS011;32493;50.514;9.678;2023-04-08T02:30:09;246.48;;;17.05;;
46745;SDS011;32493;50.514;9.678;2023-04-08T02:32:19;60.83;;;11.52;;
46745;SDS011;32493;50.514;9.678;2023-04-08T02:34:27;95.55;;;12.95;;
46745;SDS011;32493;50.514;9.678;2023-04-08T02:38:41;25.55;;;9.68;;
46745;SDS011;32493;50.514;9.678;2023-04-08T02:40:53;34.45;;;12.38;;
46745;SDS011;32493;50.514;9.678;2023-04-08T02:42:58;64.65;;;11.80;;
46745;SDS011;32493;50.514;9.678;2023-04-08T02:45:05;232.88;;;15.65;;
46745;SDS011;32493;50.514;9.678;2023-04-08T02:47:12;51.63;;;10.50;;
46745;SDS011;32493;50.514;9.678;2023-04-08T02:49:21;33.45;;;10.77;;
46745;SDS011;32493;50.514;9.678;2023-04-08T02:51:26;153.35;;;12.90;;
46745;SDS011;32493;50.514;9.678;2023-04-08T02:53:32;65.70;;;12.35;;
46745;SDS011;32493;50.514;9.678;2023-04-08T02:55:37;41.50;;;11.82;;
46745;SDS011;32493;50.514;9.678;2023-04-08T02:57:43;132.95;;;12.85;;
46745;SDS011;32493;50.514;9.678;2023-04-08T02:59:50;111.18;;;12.73;;
46745;SDS011;32493;50.514;9.678;2023-04-08T03:01:56;189.82;;;13.43;;
46745;SDS011;32493;50.514;9.678;2023-04-08T03:04:01;80.47;;;12.13;;
46745;SDS011;32493;50.514;9.678;2023-04-08T03:06:09;106.47;;;12.23;;
46745;SDS011;32493;50.514;9.678;2023-04-08T03:08:14;143.38;;;13.30;;
46745;SDS011;32493;50.514;9.678;2023-04-08T03:10:19;173.38;;;14.07;;
46745;SDS011;32493;50.514;9.678;2023-04-08T03:12:25;45.50;;;11.23;;
46745;SDS011;32493;50.514;9.678;2023-04-08T03:14:30;56.97;;;11.07;;
46745;SDS011;32493;50.514;9.678;2023-04-08T03:16:35;79.50;;;11.63;;
46745;SDS011;32493;50.514;9.678;2023-04-08T03:18:40;31.65;;;10.95;;
46745;SDS011;32493;50.514;9.678;2023-04-08T03:20:45;137.80;;;14.68;;
46745;SDS011;32493;50.514;9.678;2023-04-08T03:22:53;150.10;;;13.60;;
46745;SDS011;32493;50.514;9.678;2023-04-08T03:24:59;93.13;;;13.15;;
46745;SDS011;32493;50.514;9.678;2023-04-08T03:27:05;96.55;;;12.52;;
46745;SDS011;32493;50.514;9.678;2023-04-08T03:29:13;52.95;;;10.95;;
46745;SDS011;32493;50.514;9.678;2023-04-08T03:31:18;289.10;;;19.20;;
46745;SDS011;32493;50.514;9.678;2023-04-08T03:33:24;73.72;;;11.27;;
46745;SDS011;32493;50.514;9.678;2023-04-08T03:35:29;175.60;;;15.15;;
46745;SDS011;32493;50.514;9.678;2023-04-08T03:37:35;45.30;;;11.30;;
46745;SDS011;32493;50.514;9.678;2023-04-08T03:39:43;137.98;;;14.05;;
46745;SDS011;32493;50.514;9.678;2023-04-08T03:41:48;98.43;;;14.02;;
46745;SDS011;32493;50.514;9.678;2023-04-08T03:43:53;86.47;;;13.52;;
46745;SDS011;32493;50.514;9.678;2023-04-08T03:45:58;36.22;;;12.25;;
46745;SDS011;32493;50.514;9.678;2023-04-08T03:48:03;41.47;;;12.90;;
46745;SDS011;32493;50.514;9.678;2023-04-08T03:50:10;23.65;;;12.18;;
46745;SDS011;32493;50.514;9.678;2023-04-08T03:52:15;21.75;;;12.57;;
46745;SDS011;32493;50.514;9.678;2023-04-08T03:54:21;23.17;;;11.93;;
46745;SDS011;32493;50.514;9.678;2023-04-08T03:56:28;24.40;;;12.60;;
46745;SDS011;32493;50.514;9.678;2023-04-08T03:58:33;24.83;;;12.15;;
46745;SDS011;32493;50.514;9.678;2023-04-08T04:00:39;24.38;;;12.23;;
46745;SDS011;32493;50.514;9.678;2023-04-08T04:02:44;23.35;;;11.45;;
46745;SDS011;32493;50.514;9.678;2023-04-08T04:04:49;26.20;;;12.07;;
46745;SDS011;32493;50.514;9.678;2023-04-08T04:06:55;23.00;;;12.60;;
46745;SDS011;32493;50.514;9.678;2023-04-08T04:09:00;23.65;;;11.65;;
46745;SDS011;32493;50.514;9.678;2023-04-08T04:11:06;18.88;;;11.48;;
46745;SDS011;32493;50.514;9.678;2023-04-08T04:13:14;17.33;;;10.18;;
46745;SDS011;32493;50.514;9.678;2023-04-08T04:15:20;19.15;;;10.30;;
46745;SDS011;32493;50.514;9.678;2023-04-08T04:17:25;19.23;;;10.65;;
46745;SDS011;32493;50.514;9.678;2023-04-08T04:19:30;18.40;;;10.55;;
46745;SDS011;32493;50.514;9.678;2023-04-08T04:21:36;19.23;;;10.30;;
46745;SDS011;32493;50.514;9.678;2023-04-08T04:23:41;19.02;;;10.27;;
46745;SDS011;32493;50.514;9.678;2023-04-08T04:25:46;20.77;;;10.50;;
46745;SDS011;32493;50.514;9.678;2023-04-08T04:27:54;23.05;;;11.27;;
46745;SDS011;32493;50.514;9.678;2023-04-08T04:30:02;24.90;;;11.80;;
46745;SDS011;32493;50.514;9.678;2023-04-08T04:32:10;24.45;;;12.27;;
46745;SDS011;32493;50.514;9.678;2023-04-08T04:34:15;24.48;;;12.75;;
46745;SDS011;32493;50.514;9.678;2023-04-08T04:36:20;23.02;;;12.07;;
46745;SDS011;32493;50.514;9.678;2023-04-08T04:38:26;22.40;;;11.68;;
46745;SDS011;32493;50.514;9.678;2023-04-08T04:40:33;21.45;;;12.23;;
46745;SDS011;32493;50.514;9.678;2023-04-08T04:42:40;20.50;;;11.52;;
46745;SDS011;32493;50.514;9.678;2023-04-08T04:44:45;21.20;;;12.27;;
46745;SDS011;32493;50.514;9.678;2023-04-08T04:46:53;26.67;;;12.35;;
46745;SDS011;32493;50.514;9.678;2023-04-08T04:49:00;24.20;;;11.88;;
46745;SDS011;32493;50.514;9.678;2023-04-08T04:51:06;20.48;;;12.00;;
46745;SDS011;32493;50.514;9.678;2023-04-08T04:53:11;17.98;;;11.38;;
46745;SDS011;32493;50.514;9.678;2023-04-08T04:55:16;17.15;;;10.35;;
46745;SDS011;32493;50.514;9.678;2023-04-08T04:57:22;19.92;;;11.52;;
46745;SDS011;32493;50.514;9.678;2023-04-08T04:59:30;20.60;;;11.27;;
46745;SDS011;32493;50.514;9.678;2023-04-08T05:01:36;19.38;;;11.32;;
46745;SDS011;32493;50.514;9.678;2023-04-08T05:03:44;21.08;;;12.35;;
46745;SDS011;32493;50.514;9.678;2023-04-08T05:05:50;22.10;;;12.27;;
46745;SDS011;32493;50.514;9.678;2023-04-08T05:07:57;21.40;;;12.30;;
46745;SDS011;32493;50.514;9.678;2023-04-08T05:10:03;20.27;;;12.10;;
46745;SDS011;32493;50.514;9.678;2023-04-08T05:12:11;21.27;;;12.10;;
46745;SDS011;32493;50.514;9.678;2023-04-08T05:14:16;22.27;;;12.93;;
46745;SDS011;32493;50.514;9.678;2023-04-08T05:16:21;21.77;;;12.10;;
46745;SDS011;32493;50.514;9.678;2023-04-08T05:18:28;21.45;;;12.68;;
46745;SDS011;32493;50.514;9.678;2023-04-08T05:20:36;21.70;;;12.98;;
46745;SDS011;32493;50.514;9.678;2023-04-08T05:22:41;20.75;;;12.10;;
46745;SDS011;32493;50.514;9.678;2023-04-08T05:24:46;20.48;;;11.95;;
46745;SDS011;32493;50.514;9.678;2023-04-08T05:26:52;23.40;;;12.65;;
46745;SDS011;32493;50.514;9.678;2023-04-08T05:28:59;21.40;;;11.88;;
46745;SDS011;32493;50.514;9.678;2023-04-08T05:31:05;23.10;;;12.45;;
46745;SDS011;32493;50.514;9.678;2023-04-08T05:33:12;18.33;;;11.30;;
46745;SDS011;32493;50.514;9.678;2023-04-08T05:35:17;21.98;;;11.93;;
46745;SDS011;32493;50.514;9.678;2023-04-08T05:37:25;20.33;;;11.60;;
46745;SDS011;32493;50.514;9.678;2023-04-08T05:39:30;21.20;;;11.50;;
46745;SDS011;32493;50.514;9.678;2023-04-08T05:41:35;20.10;;;11.23;;
46745;SDS011;32493;50.514;9.678;2023-04-08T05:43:40;21.17;;;11.27;;
46745;SDS011;32493;50.514;9.678;2023-04-08T05:45:45;20.10;;;11.55;;
46745;SDS011;32493;50.514;9.678;2023-04-08T05:47:50;22.08;;;11.38;;
46745;SDS011;32493;50.514;9.678;2023-04-08T05:49:55;20.15;;;11.88;;
46745;SDS011;32493;50.514;9.678;2023-04-08T05:52:00;19.58;;;10.80;;
46745;SDS011;32493;50.514;9.678;2023-04-08T05:54:09;21.25;;;11.73;;
46745;SDS011;32493;50.514;9.678;2023-04-08T05:56:15;21.50;;;12.55;;
46745;SDS011;32493;50.514;9.678;2023-04-08T05:58:20;20.70;;;12.10;;
46745;SDS011;32493;50.514;9.678;2023-04-08T06:00:25;22.42;;;11.23;;
46745;SDS011;32493;50.514;9.678;2023-04-08T06:02:30;21.90;;;12.05;;
46745;SDS011;32493;50.514;9.678;2023-04-08T06:04:35;20.65;;;12.07;;
46745;SDS011;32493;50.514;9.678;2023-04-08T06:06:41;19.50;;;11.82;;
46745;SDS011;32493;50.514;9.678;2023-04-08T06:08:46;17.50;;;11.30;;
46745;SDS011;32493;50.514;9.678;2023-04-08T06:10:55;18.92;;;12.32;;
46745;SDS011;32493;50.514;9.678;2023-04-08T06:13:00;21.58;;;12.82;;
46745;SDS011;32493;50.514;9.678;2023-04-08T06:15:06;21.38;;;12.23;;
46745;SDS011;32493;50.514;9.678;2023-04-08T06:17:12;21.50;;;12.02;;
46745;SDS011;32493;50.514;9.678;2023-04-08T06:19:17;19.02;;;11.50;;
46745;SDS011;32493;50.514;9.678;2023-04-08T06:21:22;19.63;;;11.48;;
46745;SDS011;32493;50.514;9.678;2023-04-08T06:23:27;18.02;;;11.07;;
46745;SDS011;32493;50.514;9.678;2023-04-08T06:25:32;16.88;;;11.02;;
46745;SDS011;32493;50.514;9.678;2023-04-08T06:27:40;17.15;;;10.23;;
46745;SDS011;32493;50.514;9.678;2023-04-08T06:31:50;17.17;;;10.68;;
46745;SDS011;32493;50.514;9.678;2023-04-08T06:33:55;18.02;;;11.10;;
46745;SDS011;32493;50.514;9.678;2023-04-08T06:36:01;16.17;;;10.90;;
46745;SDS011;32493;50.514;9.678;2023-04-08T06:38:07;15.95;;;10.85;;
46745;SDS011;32493;50.514;9.678;2023-04-08T06:40:12;18.75;;;11.38;;
46745;SDS011;32493;50.514;9.678;2023-04-08T06:42:17;19.88;;;11.50;;
46745;SDS011;32493;50.514;9.678;2023-04-08T06:44:44;16.67;;;10.65;;
46745;SDS011;32493;50.514;9.678;2023-04-08T06:48:54;15.43;;;9.98;;
46745;SDS011;32493;50.514;9.678;2023-04-08T06:50:59;18.08;;;10.60;;
46745;SDS011;32493;50.514;9.678;2023-04-08T06:53:05;16.15;;;9.93;;
46745;SDS011;32493;50.514;9.678;2023-04-08T06:55:10;18.02;;;10.90;;
46745;SDS011;32493;50.514;9.678;2023-04-08T06:57:15;16.27;;;10.57;;
46745;SDS011;32493;50.514;9.678;2023-04-08T06:59:22;16.77;;;10.70;;
46745;SDS011;32493;50.514;9.678;2023-04-08T07:01:33;20.25;;;11.20;;
46745;SDS011;32493;50.514;9.678;2023-04-08T07:03:38;17.08;;;10.50;;
46745;SDS011;32493;50.514;9.678;2023-04-08T07:05:43;16.05;;;11.00;;
46745;SDS011;32493;50.514;9.678;2023-04-08T07:07:49;14.13;;;10.05;;
46745;SDS011;32493;50.514;9.678;2023-04-08T07:09:54;15.07;;;9.68;;
46745;SDS011;32493;50.514;9.678;2023-04-08T07:12:00;13.48;;;9.50;;
46745;SDS011;32493;50.514;9.678;2023-04-08T07:14:05;13.07;;;9.07;;
46745;SDS011;32493;50.514;9.678;2023-04-08T07:16:10;14.25;;;9.70;;
46745;SDS011;32493;50.514;9.678;2023-04-08T07:18:18;14.32;;;9.52;;
46745;SDS011;32493;50.514;9.678;2023-04-08T07:20:24;14.02;;;8.93;;
46745;SDS011;32493;50.514;9.678;2023-04-08T07:22:33;15.60;;;9.65;;
46745;SDS011;32493;50.514;9.678;2023-04-08T07:24:38;20.80;;;10.02;;
46745;SDS011;32493;50.514;9.678;2023-04-08T07:26:45;20.33;;;10.73;;
46745;SDS011;32493;50.514;9.678;2023-04-08T07:28:50;14.57;;;9.45;;
46745;SDS011;32493;50.514;9.678;2023-04-08T07:30:56;11.80;;;8.70;;
46745;SDS011;32493;50.514;9.678;2023-04-08T07:33:12;12.30;;;8.85;;
46745;SDS011;32493;50.514;9.678;2023-04-08T07:35:20;13.15;;;8.13;;
46745;SDS011;32493;50.514;9.678;2023-04-08T07:37:27;12.55;;;8.85;;
46745;SDS011;32493;50.514;9.678;2023-04-08T07:39:32;14.50;;;9.05;;
46745;SDS011;32493;50.514;9.678;2023-04-08T07:41:38;15.00;;;9.02;;
46745;SDS011;32493;50.514;9.678;2023-04-08T07:43:43;14.43;;;8.70;;
46745;SDS011;32493;50.514;9.678;2023-04-08T07:45:49;14.80;;;8.98;;
46745;SDS011;32493;50.514;9.678;2023-04-08T07:47:57;11.45;;;8.15;;
46745;SDS011;32493;50.514;9.678;2023-04-08T07:50:03;12.15;;;7.93;;
46745;SDS011;32493;50.514;9.678;2023-04-08T07:52:13;10.52;;;7.47;;
46745;SDS011;32493;50.514;9.678;2023-04-08T07:54:18;13.98;;;7.50;;
46745;SDS011;32493;50.514;9.678;2023-04-08T07:56:24;10.10;;;7.40;;
46745;SDS011;32493;50.514;9.678;2023-04-08T07:58:30;11.38;;;7.25;;
46745;SDS011;32493;50.514;9.678;2023-04-08T08:00:35;9.55;;;6.32;;
46745;SDS011;32493;50.514;9.678;2023-04-08T08:02:41;11.02;;;6.72;;
46745;SDS011;32493;50.514;9.678;2023-04-08T08:04:47;9.07;;;6.43;;
46745;SDS011;32493;50.514;9.678;2023-04-08T08:06:52;13.10;;;7.22;;
46745;SDS011;32493;50.514;9.678;2023-04-08T08:09:00;11.15;;;7.38;;
46745;SDS011;32493;50.514;9.678;2023-04-08T08:11:05;12.13;;;7.47;;
46745;SDS011;32493;50.514;9.678;2023-04-08T08:13:10;12.48;;;7.32;;
46745;SDS011;32493;50.514;9.678;2023-04-08T08:15:17;10.73;;;7.30;;
46745;SDS011;32493;50.514;9.678;2023-04-08T08:17:23;11.70;;;7.82;;
46745;SDS011;32493;50.514;9.678;2023-04-08T08:19:33;13.32;;;7.13;;
46745;SDS011;32493;50.514;9.678;2023-04-08T08:21:38;8.98;;;6.25;;
46745;SDS011;32493;50.514;9.678;2023-04-08T08:23:44;11.93;;;7.22;;
46745;SDS011;32493;50.514;9.678;2023-04-08T08:26:00;12.02;;;7.45;;
46745;SDS011;32493;50.514;9.678;2023-04-08T08:28:06;12.75;;;7.13;;
46745;SDS011;32493;50.514;9.678;2023-04-08T08:30:11;10.25;;;6.95;;
46745;SDS011;32493;50.514;9.678;2023-04-08T08:32:17;10.80;;;6.90;;
46745;SDS011;32493;50.514;9.678;2023-04-08T08:34:22;11.05;;;6.95;;
46745;SDS011;32493;50.514;9.678;2023-04-08T08:36:29;12.23;;;6.28;;
46745;SDS011;32493;50.514;9.678;2023-04-08T08:38:35;9.98;;;6.20;;
46745;SDS011;32493;50.514;9.678;2023-04-08T08:40:40;12.75;;;6.55;;
46745;SDS011;32493;50.514;9.678;2023-04-08T08:42:51;10.02;;;6.32;;
46745;SDS011;32493;50.514;9.678;2023-04-08T08:45:00;8.18;;;5.80;;
46745;SDS011;32493;50.514;9.678;2023-04-08T08:49:12;9.38;;;5.90;;
46745;SDS011;32493;50.514;9.678;2023-04-08T08:51:17;11.65;;;5.80;;
46745;SDS011;32493;50.514;9.678;2023-04-08T08:53:26;7.93;;;5.13;;
46745;SDS011;32493;50.514;9.678;2023-04-08T08:55:36;9.48;;;5.70;;
46745;SDS011;32493;50.514;9.678;2023-04-08T08:58:04;9.98;;;5.70;;
46745;SDS011;32493;50.514;9.678;2023-04-08T09:00:11;9.65;;;5.78;;
46745;SDS011;32493;50.514;9.678;2023-04-08T09:02:26;9.38;;;5.93;;
46745;SDS011;32493;50.514;9.678;2023-04-08T09:04:35;10.02;;;5.85;;
46745;SDS011;32493;50.514;9.678;2023-04-08T09:06:41;9.63;;;6.15;;
46745;SDS011;32493;50.514;9.678;2023-04-08T09:08:47;9.43;;;6.00;;
46745;SDS011;32493;50.514;9.678;2023-04-08T09:10:52;10.30;;;6.22;;
46745;SDS011;32493;50.514;9.678;2023-04-08T09:12:57;9.95;;;6.18;;
46745;SDS011;32493;50.514;9.678;2023-04-08T09:15:06;14.73;;;6.40;;
46745;SDS011;32493;50.514;9.678;2023-04-08T09:17:13;8.07;;;6.00;;
46745;SDS011;32493;50.514;9.678;2023-04-08T09:19:19;12.48;;;6.70;;
46745;SDS011;32493;50.514;9.678;2023-04-08T09:21:24;14.25;;;5.93;;
46745;SDS011;32493;50.514;9.678;2023-04-08T09:23:36;10.15;;;6.35;;
46745;SDS011;32493;50.514;9.678;2023-04-08T09:25:43;11.57;;;6.40;;
46745;SDS011;32493;50.514;9.678;2023-04-08T09:27:48;10.90;;;6.70;;
46745;SDS011;32493;50.514;9.678;2023-04-08T09:29:54;10.27;;;5.90;;
46745;SDS011;32493;50.514;9.678;2023-04-08T09:32:19;9.23;;;5.75;;
46745;SDS011;32493;50.514;9.678;2023-04-08T09:34:25;9.48;;;6.38;;
46745;SDS011;32493;50.514;9.678;2023-04-08T09:36:35;9.50;;;6.28;;
46745;SDS011;32493;50.514;9.678;2023-04-08T09:38:40;15.18;;;6.88;;
46745;SDS011;32493;50.514;9.678;2023-04-08T09:40:46;10.85;;;6.97;;
46745;SDS011;32493;50.514;9.678;2023-04-08T09:42:53;14.38;;;6.90;;
46745;SDS011;32493;50.514;9.678;2023-04-08T09:45:00;9.98;;;6.40;;
46745;SDS011;32493;50.514;9.678;2023-04-08T09:47:16;10.13;;;6.03;;
46745;SDS011;32493;50.514;9.678;2023-04-08T09:49:28;10.17;;;6.10;;
46745;SDS011;32493;50.514;9.678;2023-04-08T09:51:40;9.02;;;5.97;;
46745;SDS011;32493;50.514;9.678;2023-04-08T09:53:55;11.18;;;6.40;;
46745;SDS011;32493;50.514;9.678;2023-04-08T09:56:06;11.25;;;6.22;;
46745;SDS011;32493;50.514;9.678;2023-04-08T09:58:14;10.82;;;5.97;;
46745;SDS011;32493;50.514;9.678;2023-04-08T10:00:24;8.55;;;5.95;;
46745;SDS011;32493;50.514;9.678;2023-04-08T10:02:42;10.18;;;6.22;;
46745;SDS011;32493;50.514;9.678;2023-04-08T10:04:59;11.93;;;6.60;;
46745;SDS011;32493;50.514;9.678;2023-04-08T10:07:11;10.02;;;6.20;;
46745;SDS011;32493;50.514;9.678;2023-04-08T10:09:20;7.72;;;5.80;;
46745;SDS011;32493;50.514;9.678;2023-04-08T10:11:28;9.25;;;6.40;;
46745;SDS011;32493;50.514;9.678;2023-04-08T10:13:34;8.50;;;5.90;;
46745;SDS011;32493;50.514;9.678;2023-04-08T10:15:39;8.98;;;5.72;;
46745;SDS011;32493;50.514;9.678;2023-04-08T10:17:51;8.95;;;5.88;;
46745;SDS011;32493;50.514;9.678;2023-04-08T10:19:57;7.65;;;5.05;;
46745;SDS011;32493;50.514;9.678;2023-04-08T10:22:02;8.82;;;6.05;;
46745;SDS011;32493;50.514;9.678;2023-04-08T10:24:08;8.10;;;5.85;;
46745;SDS011;32493;50.514;9.678;2023-04-08T10:26:28;9.50;;;5.68;;
46745;SDS011;32493;50.514;9.678;2023-04-08T10:28:36;8.68;;;5.75;;
46745;SDS011;32493;50.514;9.678;2023-04-08T10:30:41;10.18;;;5.95;;
46745;SDS011;32493;50.514;9.678;2023-04-08T10:32:50;11.30;;;6.03;;
46745;SDS011;32493;50.514;9.678;2023-04-08T10:34:56;10.20;;;6.10;;
46745;SDS011;32493;50.514;9.678;2023-04-08T10:37:03;7.65;;;5.35;;
46745;SDS011;32493;50.514;9.678;2023-04-08T10:39:11;7.47;;;5.78;;
46745;SDS011;32493;50.514;9.678;2023-04-08T10:41:22;10.65;;;5.97;;
46745;SDS011;32493;50.514;9.678;2023-04-08T10:43:30;8.98;;;6.85;;
46745;SDS011;32493;50.514;9.678;2023-04-08T10:45:37;9.50;;;6.15;;
46745;SDS011;32493;50.514;9.678;2023-04-08T10:47:44;8.10;;;6.00;;
46745;SDS011;32493;50.514;9.678;2023-04-08T10:49:51;8.43;;;5.88;;
46745;SDS011;32493;50.514;9.678;2023-04-08T10:51:57;9.52;;;5.88;;
46745;SDS011;32493;50.514;9.678;2023-04-08T10:54:05;7.57;;;5.15;;
46745;SDS011;32493;50.514;9.678;2023-04-08T10:56:13;7.25;;;5.50;;
46745;SDS011;32493;50.514;9.678;2023-04-08T10:58:19;8.68;;;6.05;;
46745;SDS011;32493;50.514;9.678;2023-04-08T11:00:31;8.68;;;5.65;;
46745;SDS011;32493;50.514;9.678;2023-04-08T11:02:40;7.72;;;5.60;;
46745;SDS011;32493;50.514;9.678;2023-04-08T11:04:45;7.63;;;5.75;;
46745;SDS011;32493;50.514;9.678;2023-04-08T11:06:56;8.65;;;5.65;;
46745;SDS011;32493;50.514;9.678;2023-04-08T11:09:02;7.32;;;5.45;;
46745;SDS011;32493;50.514;9.678;2023-04-08T11:11:07;7.50;;;5.65;;
46745;SDS011;32493;50.514;9.678;2023-04-08T11:13:12;7.43;;;5.32;;
46745;SDS011;32493;50.514;9.678;2023-04-08T11:15:19;7.97;;;5.83;;
46745;SDS011;32493;50.514;9.678;2023-04-08T11:17:25;8.05;;;5.10;;
46745;SDS011;32493;50.514;9.678;2023-04-08T11:19:31;9.18;;;5.75;;
46745;SDS011;32493;50.514;9.678;2023-04-08T11:21:39;7.00;;;5.53;;
46745;SDS011;32493;50.514;9.678;2023-04-08T11:23:47;8.45;;;5.85;;
46745;SDS011;32493;50.514;9.678;2023-04-08T11:25:54;9.63;;;5.25;;
46745;SDS011;32493;50.514;9.678;2023-04-08T11:28:00;8.15;;;5.32;;
46745;SDS011;32493;50.514;9.678;2023-04-08T11:30:06;7.38;;;5.30;;
46745;SDS011;32493;50.514;9.678;2023-04-08T11:32:13;8.32;;;5.18;;
46745;SDS011;32493;50.514;9.678;2023-04-08T11:34:21;8.02;;;5.13;;
46745;SDS011;32493;50.514;9.678;2023-04-08T11:36:28;7.38;;;5.60;;
46745;SDS011;32493;50.514;9.678;2023-04-08T11:38:37;7.82;;;5.20;;
46745;SDS011;32493;50.514;9.678;2023-04-08T11:42:59;8.68;;;5.00;;
46745;SDS011;32493;50.514;9.678;2023-04-08T11:45:13;8.07;;;5.25;;
46745;SDS011;32493;50.514;9.678;2023-04-08T11:47:20;8.25;;;5.35;;
46745;SDS011;32493;50.514;9.678;2023-04-08T11:49:26;9.93;;;5.50;;
46745;SDS011;32493;50.514;9.678;2023-04-08T11:51:31;8.73;;;5.68;;
46745;SDS011;32493;50.514;9.678;2023-04-08T11:53:38;7.95;;;5.32;;
46745;SDS011;32493;50.514;9.678;2023-04-08T11:55:48;8.65;;;5.30;;
46745;SDS011;32493;50.514;9.678;2023-04-08T11:58:00;7.82;;;5.43;;
46745;SDS011;32493;50.514;9.678;2023-04-08T12:00:08;9.50;;;5.65;;
46745;SDS011;32493;50.514;9.678;2023-04-08T12:02:14;12.98;;;5.63;;
46745;SDS011;32493;50.514;9.678;2023-04-08T12:04:19;8.88;;;5.03;;
46745;SDS011;32493;50.514;9.678;2023-04-08T12:06:25;8.20;;;5.28;;
46745;SDS011;32493;50.514;9.678;2023-04-08T12:08:30;8.45;;;5.13;;
46745;SDS011;32493;50.514;9.678;2023-04-08T12:10:37;7.78;;;5.03;;
46745;SDS011;32493;50.514;9.678;2023-04-08T12:12:44;7.68;;;4.53;;
46745;SDS011;32493;50.514;9.678;2023-04-08T12:14:49;8.43;;;5.53;;
46745;SDS011;32493;50.514;9.678;2023-04-08T12:16:55;7.00;;;4.10;;
46745;SDS011;32493;50.514;9.678;2023-04-08T12:19:00;7.68;;;5.43;;
46745;SDS011;32493;50.514;9.678;2023-04-08T12:21:05;7.35;;;4.68;;
46745;SDS011;32493;50.514;9.678;2023-04-08T12:23:10;5.70;;;4.25;;
46745;SDS011;32493;50.514;9.678;2023-04-08T12:25:16;7.18;;;4.40;;
46745;SDS011;32493;50.514;9.678;2023-04-08T12:27:21;6.38;;;4.07;;
46745;SDS011;32493;50.514;9.678;2023-04-08T12:29:29;6.78;;;4.07;;
46745;SDS011;32493;50.514;9.678;2023-04-08T12:31:34;7.55;;;4.53;;
46745;SDS011;32493;50.514;9.678;2023-04-08T12:33:39;7.13;;;4.70;;
46745;SDS011;32493;50.514;9.678;2023-04-08T12:35:45;5.95;;;4.65;;
46745;SDS011;32493;50.514;9.678;2023-04-08T12:37:52;6.80;;;4.95;;
46745;SDS011;32493;50.514;9.678;2023-04-08T12:39:57;6.07;;;4.30;;
46745;SDS011;32493;50.514;9.678;2023-04-08T12:42:02;5.35;;;3.90;;
46745;SDS011;32493;50.514;9.678;2023-04-08T12:44:08;7.63;;;4.72;;
46745;SDS011;32493;50.514;9.678;2023-04-08T12:46:16;6.30;;;4.25;;
46745;SDS011;32493;50.514;9.678;2023-04-08T12:48:21;6.55;;;4.75;;